sensor_id;sensor_type;location;lat;lon;timestamp;P1;durP1;ratioP1;P2;durP2;ratioP2
18206;SDS011;9229;52.354;20.886;2023-04-15T00:02:04;12.82;;;8.40;;
18206;SDS011;9229;52.354;20.886;2023-04-15T00:07:15;9.13;;;7.18;;
18206;SDS011;9229;52.354;20.886;2023-04-15T00:12:17;13.60;;;8.27;;
18206;SDS011;9229;52.354;20.886;2023-04-15T00:17:20;15.60;;;8.38;;
18206;SDS011;9229;52.354;20.886;2023-04-15T00:22:22;12.55;;;8.30;;
18206;SDS011;9229;52.354;20.886;2023-04-15T00:27:24;14.25;;;9.50;;
18206;SDS011;9229;52.354;20.886;2023-04-15T00:32:28;11.07;;;8.57;;
18206;SDS011;9229;52.354;20.886;2023-04-15T00:37:30;11.68;;;8.68;;
18206;SDS011;9229;52.354;20.886;2023-04-15T00:42:34;10.20;;;8.50;;
18206;SDS011;9229;52.354;20.886;2023-04-15T00:47:38;15.75;;;8.75;;
18206;SDS011;9229;52.354;20.886;2023-04-15T00:52:42;14.55;;;8.90;;
18206;SDS011;9229;52.354;20.886;2023-04-15T00:57:44;10.75;;;8.15;;
18206;SDS011;9229;52.354;20.886;2023-04-15T01:02:48;10.52;;;8.02;;
18206;SDS011;9229;52.354;20.886;2023-04-15T01:07:51;10.30;;;8.13;;
18206;SDS011;9229;52.354;20.886;2023-04-15T01:12:55;10.05;;;8.05;;
18206;SDS011;9229;52.354;20.886;2023-04-15T01:18:00;10.27;;;8.32;;
18206;SDS011;9229;52.354;20.886;2023-04-15T01:23:03;11.27;;;8.90;;
18206;SDS011;9229;52.354;20.886;2023-04-15T01:28:07;11.73;;;8.45;;
18206;SDS011;9229;52.354;20.886;2023-04-15T01:33:10;11.75;;;8.93;;
18206;SDS011;9229;52.354;20.886;2023-04-15T01:38:12;12.30;;;8.93;;
18206;SDS011;9229;52.354;20.886;2023-04-15T01:43:16;12.98;;;8.93;;
18206;SDS011;9229;52.354;20.886;2023-04-15T01:48:19;12.38;;;9.43;;
18206;SDS011;9229;52.354;20.886;2023-04-15T01:53:21;11.57;;;8.95;;
18206;SDS011;9229;52.354;20.886;2023-04-15T01:58:25;14.82;;;9.65;;
18206;SDS011;9229;52.354;20.886;2023-04-15T02:03:27;16.63;;;10.18;;
18206;SDS011;9229;52.354;20.886;2023-04-15T02:08:29;19.60;;;9.98;;
18206;SDS011;9229;52.354;20.886;2023-04-15T02:13:33;16.08;;;10.73;;
18206;SDS011;9229;52.354;20.886;2023-04-15T02:18:35;14.65;;;10.45;;
18206;SDS011;9229;52.354;20.886;2023-04-15T02:23:36;19.35;;;10.88;;
18206;SDS011;9229;52.354;20.886;2023-04-15T02:28:40;19.55;;;10.90;;
18206;SDS011;9229;52.354;20.886;2023-04-15T02:33:42;18.30;;;11.63;;
18206;SDS011;9229;52.354;20.886;2023-04-15T02:38:44;17.08;;;11.00;;
18206;SDS011;9229;52.354;20.886;2023-04-15T02:43:49;18.67;;;11.10;;
18206;SDS011;9229;52.354;20.886;2023-04-15T02:48:51;14.40;;;10.90;;
18206;SDS011;9229;52.354;20.886;2023-04-15T02:53:55;16.75;;;11.85;;
18206;SDS011;9229;52.354;20.886;2023-04-15T02:58:59;17.00;;;11.70;;
18206;SDS011;9229;52.354;20.886;2023-04-15T03:04:03;19.27;;;12.43;;
18206;SDS011;9229;52.354;20.886;2023-04-15T03:09:08;20.00;;;11.63;;
18206;SDS011;9229;52.354;20.886;2023-04-15T03:14:13;19.70;;;12.13;;
18206;SDS011;9229;52.354;20.886;2023-04-15T03:19:19;15.90;;;11.65;;
18206;SDS011;9229;52.354;20.886;2023-04-15T03:24:21;20.48;;;12.48;;
18206;SDS011;9229;52.354;20.886;2023-04-15T03:29:26;23.77;;;11.75;;
18206;SDS011;9229;52.354;20.886;2023-04-15T03:34:28;15.80;;;10.68;;
18206;SDS011;9229;52.354;20.886;2023-04-15T03:39:32;13.98;;;10.50;;
18206;SDS011;9229;52.354;20.886;2023-04-15T03:44:35;20.73;;;11.85;;
18206;SDS011;9229;52.354;20.886;2023-04-15T03:49:37;18.02;;;11.85;;
18206;SDS011;9229;52.354;20.886;2023-04-15T03:54:39;14.27;;;11.05;;
18206;SDS011;9229;52.354;20.886;2023-04-15T03:59:43;18.30;;;12.18;;
18206;SDS011;9229;52.354;20.886;2023-04-15T04:04:45;17.50;;;11.93;;
18206;SDS011;9229;52.354;20.886;2023-04-15T04:15:30;15.77;;;11.00;;
18206;SDS011;9229;52.354;20.886;2023-04-15T04:20:32;19.40;;;11.25;;
18206;SDS011;9229;52.354;20.886;2023-04-15T04:25:34;17.45;;;11.15;;
18206;SDS011;9229;52.354;20.886;2023-04-15T04:30:39;17.98;;;11.43;;
18206;SDS011;9229;52.354;20.886;2023-04-15T04:35:41;17.08;;;10.93;;
18206;SDS011;9229;52.354;20.886;2023-04-15T04:40:44;17.10;;;11.13;;
18206;SDS011;9229;52.354;20.886;2023-04-15T04:45:48;15.80;;;10.82;;
18206;SDS011;9229;52.354;20.886;2023-04-15T04:50:53;15.05;;;10.73;;
18206;SDS011;9229;52.354;20.886;2023-04-15T04:55:55;15.23;;;10.07;;
18206;SDS011;9229;52.354;20.886;2023-04-15T05:01:00;16.63;;;11.93;;
18206;SDS011;9229;52.354;20.886;2023-04-15T05:06:03;18.50;;;11.57;;
18206;SDS011;9229;52.354;20.886;2023-04-15T05:11:07;14.80;;;10.70;;
18206;SDS011;9229;52.354;20.886;2023-04-15T05:16:11;19.48;;;11.50;;
18206;SDS011;9229;52.354;20.886;2023-04-15T05:21:13;16.02;;;11.45;;
18206;SDS011;9229;52.354;20.886;2023-04-15T05:26:15;20.13;;;11.60;;
18206;SDS011;9229;52.354;20.886;2023-04-15T05:31:19;15.57;;;11.38;;
18206;SDS011;9229;52.354;20.886;2023-04-15T05:36:24;16.75;;;10.82;;
18206;SDS011;9229;52.354;20.886;2023-04-15T05:41:27;16.13;;;11.18;;
18206;SDS011;9229;52.354;20.886;2023-04-15T05:46:30;17.48;;;11.45;;
18206;SDS011;9229;52.354;20.886;2023-04-15T05:51:32;17.02;;;10.80;;
18206;SDS011;9229;52.354;20.886;2023-04-15T05:56:35;19.33;;;11.65;;
18206;SDS011;9229;52.354;20.886;2023-04-15T06:01:38;17.50;;;12.20;;
18206;SDS011;9229;52.354;20.886;2023-04-15T06:06:40;16.13;;;10.73;;
18206;SDS011;9229;52.354;20.886;2023-04-15T06:11:42;15.20;;;10.68;;
18206;SDS011;9229;52.354;20.886;2023-04-15T06:16:46;14.93;;;10.75;;
18206;SDS011;9229;52.354;20.886;2023-04-15T06:21:49;16.60;;;10.82;;
18206;SDS011;9229;52.354;20.886;2023-04-15T06:26:51;15.10;;;10.30;;
18206;SDS011;9229;52.354;20.886;2023-04-15T06:31:54;16.70;;;10.35;;
18206;SDS011;9229;52.354;20.886;2023-04-15T06:36:56;15.80;;;10.75;;
18206;SDS011;9229;52.354;20.886;2023-04-15T06:41:58;13.85;;;10.15;;
18206;SDS011;9229;52.354;20.886;2023-04-15T06:47:02;15.98;;;10.63;;
18206;SDS011;9229;52.354;20.886;2023-04-15T06:52:04;16.30;;;10.93;;
18206;SDS011;9229;52.354;20.886;2023-04-15T06:57:06;14.52;;;9.68;;
18206;SDS011;9229;52.354;20.886;2023-04-15T07:02:11;16.70;;;10.77;;
18206;SDS011;9229;52.354;20.886;2023-04-15T07:07:14;14.13;;;9.80;;
18206;SDS011;9229;52.354;20.886;2023-04-15T07:12:19;15.10;;;9.45;;
18206;SDS011;9229;52.354;20.886;2023-04-15T07:17:23;12.70;;;9.48;;
18206;SDS011;9229;52.354;20.886;2023-04-15T07:22:25;15.18;;;10.52;;
18206;SDS011;9229;52.354;20.886;2023-04-15T07:27:27;13.10;;;9.75;;
18206;SDS011;9229;52.354;20.886;2023-04-15T07:32:31;12.07;;;9.18;;
18206;SDS011;9229;52.354;20.886;2023-04-15T07:37:33;12.02;;;9.07;;
18206;SDS011;9229;52.354;20.886;2023-04-15T07:42:36;13.35;;;8.93;;
18206;SDS011;9229;52.354;20.886;2023-04-15T07:47:39;12.43;;;9.07;;
18206;SDS011;9229;52.354;20.886;2023-04-15T07:52:48;8.63;;;7.65;;
18206;SDS011;9229;52.354;20.886;2023-04-15T07:57:51;8.38;;;7.47;;
18206;SDS011;9229;52.354;20.886;2023-04-15T08:02:57;8.93;;;7.45;;
18206;SDS011;9229;52.354;20.886;2023-04-15T08:08:01;8.40;;;7.38;;
18206;SDS011;9229;52.354;20.886;2023-04-15T08:13:03;7.70;;;6.88;;
18206;SDS011;9229;52.354;20.886;2023-04-15T08:18:09;7.88;;;6.47;;
18206;SDS011;9229;52.354;20.886;2023-04-15T08:23:11;7.68;;;6.97;;
18206;SDS011;9229;52.354;20.886;2023-04-15T08:28:13;7.13;;;6.43;;
18206;SDS011;9229;52.354;20.886;2023-04-15T08:33:19;7.68;;;6.97;;
18206;SDS011;9229;52.354;20.886;2023-04-15T08:38:21;8.70;;;6.80;;
18206;SDS011;9229;52.354;20.886;2023-04-15T08:43:26;6.80;;;5.88;;
18206;SDS011;9229;52.354;20.886;2023-04-15T08:48:35;6.95;;;6.35;;
18206;SDS011;9229;52.354;20.886;2023-04-15T08:53:41;6.70;;;6.10;;
18206;SDS011;9229;52.354;20.886;2023-04-15T08:58:49;7.68;;;5.93;;
18206;SDS011;9229;52.354;20.886;2023-04-15T09:03:56;7.47;;;6.07;;
18206;SDS011;9229;52.354;20.886;2023-04-15T09:09:00;6.43;;;5.82;;
18206;SDS011;9229;52.354;20.886;2023-04-15T09:14:04;5.95;;;5.47;;
18206;SDS011;9229;52.354;20.886;2023-04-15T09:19:21;6.70;;;5.80;;
18206;SDS011;9229;52.354;20.886;2023-04-15T09:24:33;6.82;;;5.10;;
18206;SDS011;9229;52.354;20.886;2023-04-15T09:29:37;5.05;;;4.65;;
18206;SDS011;9229;52.354;20.886;2023-04-15T09:34:43;4.88;;;4.47;;
18206;SDS011;9229;52.354;20.886;2023-04-15T09:39:46;5.35;;;4.95;;
18206;SDS011;9229;52.354;20.886;2023-04-15T09:44:49;6.03;;;5.10;;
18206;SDS011;9229;52.354;20.886;2023-04-15T09:49:55;9.63;;;5.03;;
18206;SDS011;9229;52.354;20.886;2023-04-15T09:54:57;5.07;;;4.60;;
18206;SDS011;9229;52.354;20.886;2023-04-15T10:00:00;4.93;;;4.53;;
18206;SDS011;9229;52.354;20.886;2023-04-15T10:05:03;4.90;;;4.60;;
18206;SDS011;9229;52.354;20.886;2023-04-15T10:10:06;4.90;;;4.50;;
18206;SDS011;9229;52.354;20.886;2023-04-15T10:15:17;5.82;;;5.32;;
18206;SDS011;9229;52.354;20.886;2023-04-15T10:20:21;4.63;;;4.20;;
18206;SDS011;9229;52.354;20.886;2023-04-15T10:25:23;4.95;;;4.65;;
18206;SDS011;9229;52.354;20.886;2023-04-15T10:30:28;5.05;;;4.57;;
18206;SDS011;9229;52.354;20.886;2023-04-15T10:35:33;4.68;;;4.38;;
18206;SDS011;9229;52.354;20.886;2023-04-15T10:40:37;4.93;;;4.63;;
18206;SDS011;9229;52.354;20.886;2023-04-15T10:45:39;5.20;;;4.70;;
18206;SDS011;9229;52.354;20.886;2023-04-15T10:50:55;5.05;;;4.70;;
18206;SDS011;9229;52.354;20.886;2023-04-15T10:56:01;4.95;;;4.65;;
18206;SDS011;9229;52.354;20.886;2023-04-15T11:01:05;4.93;;;4.63;;
18206;SDS011;9229;52.354;20.886;2023-04-15T11:06:09;5.05;;;4.65;;
18206;SDS011;9229;52.354;20.886;2023-04-15T11:11:13;4.82;;;4.43;;
18206;SDS011;9229;52.354;20.886;2023-04-15T11:16:15;5.10;;;4.70;;
18206;SDS011;9229;52.354;20.886;2023-04-15T11:21:18;5.20;;;4.80;;
18206;SDS011;9229;52.354;20.886;2023-04-15T11:26:24;5.10;;;4.60;;
18206;SDS011;9229;52.354;20.886;2023-04-15T11:31:27;4.43;;;4.13;;
18206;SDS011;9229;52.354;20.886;2023-04-15T11:36:31;4.10;;;3.88;;
18206;SDS011;9229;52.354;20.886;2023-04-15T11:41:34;4.18;;;3.88;;
18206;SDS011;9229;52.354;20.886;2023-04-15T11:46:36;4.05;;;3.75;;
18206;SDS011;9229;52.354;20.886;2023-04-15T11:57:41;3.58;;;3.33;;
18206;SDS011;9229;52.354;20.886;2023-04-15T12:02:49;3.50;;;3.30;;
18206;SDS011;9229;52.354;20.886;2023-04-15T12:15:08;3.70;;;3.50;;
18206;SDS011;9229;52.354;20.886;2023-04-15T12:20:12;3.60;;;3.40;;
18206;SDS011;9229;52.354;20.886;2023-04-15T12:25:14;4.10;;;3.80;;
18206;SDS011;9229;52.354;20.886;2023-04-15T12:30:55;4.30;;;3.78;;
18206;SDS011;9229;52.354;20.886;2023-04-15T12:35:58;4.53;;;4.15;;
18206;SDS011;9229;52.354;20.886;2023-04-15T12:41:00;4.20;;;3.88;;
18206;SDS011;9229;52.354;20.886;2023-04-15T12:46:03;3.72;;;3.45;;
18206;SDS011;9229;52.354;20.886;2023-04-15T12:51:09;5.18;;;3.92;;
18206;SDS011;9229;52.354;20.886;2023-04-15T12:56:11;4.22;;;3.95;;
18206;SDS011;9229;52.354;20.886;2023-04-15T13:01:15;4.40;;;4.00;;
18206;SDS011;9229;52.354;20.886;2023-04-15T13:06:26;4.28;;;3.92;;
18206;SDS011;9229;52.354;20.886;2023-04-15T13:11:29;3.92;;;3.63;;
18206;SDS011;9229;52.354;20.886;2023-04-15T13:16:34;5.25;;;4.40;;
18206;SDS011;9229;52.354;20.886;2023-04-15T13:21:36;4.25;;;3.95;;
18206;SDS011;9229;52.354;20.886;2023-04-15T13:26:38;4.60;;;4.25;;
18206;SDS011;9229;52.354;20.886;2023-04-15T13:31:44;5.03;;;4.55;;
18206;SDS011;9229;52.354;20.886;2023-04-15T13:37:07;5.20;;;4.70;;
18206;SDS011;9229;52.354;20.886;2023-04-15T13:42:26;4.78;;;4.25;;
18206;SDS011;9229;52.354;20.886;2023-04-15T13:47:31;3.97;;;3.78;;
18206;SDS011;9229;52.354;20.886;2023-04-15T13:52:33;2.60;;;2.50;;
18206;SDS011;9229;52.354;20.886;2023-04-15T13:57:42;2.55;;;2.35;;
18206;SDS011;9229;52.354;20.886;2023-04-15T14:02:46;2.88;;;2.67;;
18206;SDS011;9229;52.354;20.886;2023-04-15T14:07:52;2.70;;;2.60;;
18206;SDS011;9229;52.354;20.886;2023-04-15T14:12:55;2.75;;;2.63;;
18206;SDS011;9229;52.354;20.886;2023-04-15T14:17:58;2.92;;;2.83;;
18206;SDS011;9229;52.354;20.886;2023-04-15T14:23:03;2.78;;;2.65;;
18206;SDS011;9229;52.354;20.886;2023-04-15T14:28:07;3.42;;;2.92;;
18206;SDS011;9229;52.354;20.886;2023-04-15T14:33:13;3.28;;;3.08;;
18206;SDS011;9229;52.354;20.886;2023-04-15T14:38:15;3.45;;;3.20;;
18206;SDS011;9229;52.354;20.886;2023-04-15T14:43:17;3.30;;;3.10;;
18206;SDS011;9229;52.354;20.886;2023-04-15T14:48:21;3.60;;;3.35;;
18206;SDS011;9229;52.354;20.886;2023-04-15T14:53:23;2.33;;;2.10;;
18206;SDS011;9229;52.354;20.886;2023-04-15T14:58:32;2.28;;;2.17;;
18206;SDS011;9229;52.354;20.886;2023-04-15T15:03:41;2.75;;;2.55;;
18206;SDS011;9229;52.354;20.886;2023-04-15T15:08:50;2.13;;;2.13;;
18206;SDS011;9229;52.354;20.886;2023-04-15T15:14:00;2.70;;;2.10;;
18206;SDS011;9229;52.354;20.886;2023-04-15T15:19:04;2.95;;;2.85;;
18206;SDS011;9229;52.354;20.886;2023-04-15T15:24:20;2.90;;;2.70;;
18206;SDS011;9229;52.354;20.886;2023-04-15T15:29:24;2.80;;;2.60;;
18206;SDS011;9229;52.354;20.886;2023-04-15T15:34:28;2.90;;;2.70;;
18206;SDS011;9229;52.354;20.886;2023-04-15T15:39:30;3.30;;;3.00;;
18206;SDS011;9229;52.354;20.886;2023-04-15T15:44:34;2.45;;;2.25;;
18206;SDS011;9229;52.354;20.886;2023-04-15T15:49:39;2.65;;;2.22;;
18206;SDS011;9229;52.354;20.886;2023-04-15T15:54:47;2.60;;;2.40;;
18206;SDS011;9229;52.354;20.886;2023-04-15T15:59:56;2.80;;;2.60;;
18206;SDS011;9229;52.354;20.886;2023-04-15T16:05:06;4.05;;;2.28;;
18206;SDS011;9229;52.354;20.886;2023-04-15T16:10:09;2.60;;;2.40;;
18206;SDS011;9229;52.354;20.886;2023-04-15T16:15:16;3.03;;;2.78;;
18206;SDS011;9229;52.354;20.886;2023-04-15T16:26:24;2.40;;;2.30;;
18206;SDS011;9229;52.354;20.886;2023-04-15T16:31:26;2.75;;;2.55;;
18206;SDS011;9229;52.354;20.886;2023-04-15T16:36:28;3.00;;;2.35;;
18206;SDS011;9229;52.354;20.886;2023-04-15T16:41:36;2.45;;;2.33;;
18206;SDS011;9229;52.354;20.886;2023-04-15T16:46:39;5.68;;;2.50;;
18206;SDS011;9229;52.354;20.886;2023-04-15T16:52:00;3.55;;;2.70;;
18206;SDS011;9229;52.354;20.886;2023-04-15T16:57:05;2.90;;;2.42;;
18206;SDS011;9229;52.354;20.886;2023-04-15T17:02:11;2.95;;;2.60;;
18206;SDS011;9229;52.354;20.886;2023-04-15T17:07:36;2.83;;;2.58;;
18206;SDS011;9229;52.354;20.886;2023-04-15T17:13:04;3.00;;;2.80;;
18206;SDS011;9229;52.354;20.886;2023-04-15T17:18:48;3.40;;;2.60;;
18206;SDS011;9229;52.354;20.886;2023-04-15T17:23:55;3.42;;;3.33;;
18206;SDS011;9229;52.354;20.886;2023-04-15T17:29:04;4.25;;;3.50;;
18206;SDS011;9229;52.354;20.886;2023-04-15T17:34:19;3.67;;;3.38;;
18206;SDS011;9229;52.354;20.886;2023-04-15T17:39:45;3.67;;;3.40;;
18206;SDS011;9229;52.354;20.886;2023-04-15T17:51:47;3.78;;;3.53;;
18206;SDS011;9229;52.354;20.886;2023-04-15T17:58:07;4.07;;;3.78;;
18206;SDS011;9229;52.354;20.886;2023-04-15T18:03:15;5.47;;;3.95;;
18206;SDS011;9229;52.354;20.886;2023-04-15T18:45:21;3.53;;;3.33;;
18206;SDS011;9229;52.354;20.886;2023-04-15T19:14:01;4.82;;;4.28;;
18206;SDS011;9229;52.354;20.886;2023-04-15T19:19:13;6.68;;;3.67;;
18206;SDS011;9229;52.354;20.886;2023-04-15T19:24:15;4.53;;;3.90;;
18206;SDS011;9229;52.354;20.886;2023-04-15T19:29:24;3.35;;;3.15;;
18206;SDS011;9229;52.354;20.886;2023-04-15T19:34:31;3.45;;;3.08;;
18206;SDS011;9229;52.354;20.886;2023-04-15T19:39:33;2.90;;;2.70;;
18206;SDS011;9229;52.354;20.886;2023-04-15T19:44:36;2.33;;;2.22;;
18206;SDS011;9229;52.354;20.886;2023-04-15T19:49:41;2.80;;;2.60;;
18206;SDS011;9229;52.354;20.886;2023-04-15T19:54:45;2.75;;;2.55;;
18206;SDS011;9229;52.354;20.886;2023-04-15T19:59:48;3.45;;;2.97;;
18206;SDS011;9229;52.354;20.886;2023-04-15T20:04:53;2.95;;;2.80;;
18206;SDS011;9229;52.354;20.886;2023-04-15T20:10:00;2.78;;;2.60;;
18206;SDS011;9229;52.354;20.886;2023-04-15T20:15:07;5.32;;;3.38;;
18206;SDS011;9229;52.354;20.886;2023-04-15T20:20:22;3.53;;;3.25;;
18206;SDS011;9229;52.354;20.886;2023-04-15T20:25:37;3.75;;;3.55;;
18206;SDS011;9229;52.354;20.886;2023-04-15T20:30:43;4.00;;;3.28;;
18206;SDS011;9229;52.354;20.886;2023-04-15T20:35:47;4.18;;;3.88;;
18206;SDS011;9229;52.354;20.886;2023-04-15T20:40:49;3.25;;;3.05;;
18206;SDS011;9229;52.354;20.886;2023-04-15T20:45:53;4.22;;;3.65;;
18206;SDS011;9229;52.354;20.886;2023-04-15T20:50:55;3.63;;;3.33;;
18206;SDS011;9229;52.354;20.886;2023-04-15T20:56:00;3.10;;;2.90;;
18206;SDS011;9229;52.354;20.886;2023-04-15T21:01:05;3.10;;;2.90;;
18206;SDS011;9229;52.354;20.886;2023-04-15T21:06:13;3.60;;;3.40;;
18206;SDS011;9229;52.354;20.886;2023-04-15T21:11:15;4.40;;;4.00;;
18206;SDS011;9229;52.354;20.886;2023-04-15T21:16:26;6.93;;;3.67;;
18206;SDS011;9229;52.354;20.886;2023-04-15T21:21:32;4.15;;;3.85;;
18206;SDS011;9229;52.354;20.886;2023-04-15T21:26:34;4.72;;;3.97;;
18206;SDS011;9229;52.354;20.886;2023-04-15T21:31:37;5.97;;;3.80;;
18206;SDS011;9229;52.354;20.886;2023-04-15T21:36:43;4.90;;;4.15;;
18206;SDS011;9229;52.354;20.886;2023-04-15T21:41:45;4.20;;;3.90;;
18206;SDS011;9229;52.354;20.886;2023-04-15T21:46:49;3.88;;;3.53;;
18206;SDS011;9229;52.354;20.886;2023-04-15T21:51:53;3.92;;;3.50;;
18206;SDS011;9229;52.354;20.886;2023-04-15T21:57:02;5.40;;;3.83;;
18206;SDS011;9229;52.354;20.886;2023-04-15T22:02:05;4.45;;;4.05;;
18206;SDS011;9229;52.354;20.886;2023-04-15T22:07:07;3.97;;;3.67;;
18206;SDS011;9229;52.354;20.886;2023-04-15T22:12:09;4.47;;;4.10;;
18206;SDS011;9229;52.354;20.886;2023-04-15T22:17:13;5.00;;;4.50;;
18206;SDS011;9229;52.354;20.886;2023-04-15T22:22:15;5.18;;;4.65;;
18206;SDS011;9229;52.354;20.886;2023-04-15T22:27:18;4.70;;;4.30;;
18206;SDS011;9229;52.354;20.886;2023-04-15T22:32:22;4.43;;;4.13;;
18206;SDS011;9229;52.354;20.886;2023-04-15T22:37:24;7.38;;;4.32;;
18206;SDS011;9229;52.354;20.886;2023-04-15T22:42:30;4.32;;;4.10;;
18206;SDS011;9229;52.354;20.886;2023-04-15T22:47:33;4.78;;;4.38;;
18206;SDS011;9229;52.354;20.886;2023-04-15T22:52:35;5.00;;;4.45;;
18206;SDS011;9229;52.354;20.886;2023-04-15T22:57:37;4.90;;;4.43;;
18206;SDS011;9229;52.354;20.886;2023-04-15T23:02:41;4.82;;;4.40;;
18206;SDS011;9229;52.354;20.886;2023-04-15T23:07:43;4.57;;;4.18;;
18206;SDS011;9229;52.354;20.886;2023-04-15T23:12:46;4.90;;;4.50;;
18206;SDS011;9229;52.354;20.886;2023-04-15T23:17:49;4.40;;;4.00;;
18206;SDS011;9229;52.354;20.886;2023-04-15T23:22:51;4.60;;;4.30;;
18206;SDS011;9229;52.354;20.886;2023-04-15T23:27:53;5.68;;;4.43;;
18206;SDS011;9229;52.354;20.886;2023-04-15T23:32:59;4.78;;;4.40;;
18206;SDS011;9229;52.354;20.886;2023-04-15T23:38:03;4.57;;;4.25;;
18206;SDS011;9229;52.354;20.886;2023-04-15T23:43:05;4.68;;;4.30;;
18206;SDS011;9229;52.354;20.886;2023-04-15T23:48:09;6.97;;;4.80;;
18206;SDS011;9229;52.354;20.886;2023-04-15T23:53:11;4.35;;;3.97;;
18206;SDS011;9229;52.354;20.886;2023-04-15T23:58:13;5.10;;;4.32;;
